Joao Correa da Rocha Airport


Codes: SBMA/MAB
Name: Joao Correa da Rocha Airport
City: Maraba
Country: Brazil
Elevation: 357 ft.
Wikipedia:

Photos at Joao Correa da Rocha Airport


   Photos courtesy of SpottingLog. You can add your own sightings and photos by signing up for a free trial today.



No photos found.

Weather at Joao Correa da Rocha Airport


Time (UTC)DescriptionTempratureWindCloud coverageVisibilityPressureHumidity
18-Apr-2024 00:00Few Clouds29°C2 mph, SE20%10000m1007hPa84%
18-Apr-2024 03:00Light Rain27°C2 mph, E36%10000m1008hPa88%
18-Apr-2024 06:00Light Rain25°C2 mph, E52%10000m1008hPa94%
18-Apr-2024 09:00Broken Clouds23°C0 mph, N69%10000m1010hPa98%
18-Apr-2024 12:00Broken Clouds27°C2 mph, NE74%10000m1012hPa83%
18-Apr-2024 15:00Light Rain31°C2 mph, NE100%10000m1010hPa64%
18-Apr-2024 18:00Light Rain32°C2 mph, SE100%10000m1008hPa58%
18-Apr-2024 21:00Light Rain26°C2 mph, SE76%10000m1009hPa93%
19-Apr-2024 00:00Overcast Clouds25°C2 mph, E88%10000m1011hPa95%
19-Apr-2024 03:00Light Rain25°C2 mph, NE100%10000m1011hPa96%
19-Apr-2024 06:00Overcast Clouds24°C2 mph, NE100%10000m1010hPa96%
19-Apr-2024 09:00Light Rain23°C2 mph, E100%10000m1011hPa99%
19-Apr-2024 12:00Overcast Clouds25°C2 mph, E100%10000m1013hPa94%
19-Apr-2024 15:00Light Rain28°C4 mph, E88%10000m1012hPa76%
19-Apr-2024 18:00Light Rain28°C2 mph, SE93%10000m1009hPa75%
19-Apr-2024 21:00Broken Clouds26°C2 mph, S68%10000m1009hPa88%
20-Apr-2024 00:00Broken Clouds25°C4 mph, SE79%10000m1011hPa92%
20-Apr-2024 03:00Overcast Clouds23°C0 mph, SE94%10000m1012hPa96%
20-Apr-2024 06:00Light Rain23°C2 mph, NE97%10000m1011hPa98%
20-Apr-2024 09:00Overcast Clouds22°C2 mph, NW100%10000m1012hPa99%
20-Apr-2024 12:00Overcast Clouds26°C0 mph, NE100%10000m1013hPa85%
20-Apr-2024 15:00Overcast Clouds28°C4 mph, E100%10000m1012hPa77%
20-Apr-2024 18:00Overcast Clouds32°C2 mph, E100%10000m1008hPa60%
20-Apr-2024 21:00Light Rain26°C4 mph, SE91%10000m1008hPa96%
21-Apr-2024 00:00Light Rain24°C2 mph, E95%10000m1011hPa98%
21-Apr-2024 03:00Moderate Rain24°C2 mph, NE100%3917m1012hPa99%
21-Apr-2024 06:00Moderate Rain23°C0 mph, NW100%7136m1010hPa99%
21-Apr-2024 09:00Light Rain23°C0 mph, NW100%10000m1010hPa99%
21-Apr-2024 12:00Overcast Clouds26°C2 mph, NW100%10000m1012hPa91%
21-Apr-2024 15:00Light Rain30°C2 mph, NE100%7057m1010hPa78%
21-Apr-2024 18:00Moderate Rain28°C2 mph, NE100%10000m1008hPa92%
21-Apr-2024 21:00Moderate Rain25°C4 mph, E97%10000m1008hPa96%
22-Apr-2024 00:00Moderate Rain24°C2 mph, SE98%1632m1010hPa98%
22-Apr-2024 03:00Moderate Rain24°C2 mph, NE100%9264m1010hPa98%
22-Apr-2024 06:00Light Rain24°C2 mph, NW100%10000m1009hPa98%
22-Apr-2024 09:00Overcast Clouds23°C2 mph, NW98%10000m1010hPa99%
22-Apr-2024 12:00Light Rain27°C2 mph, NW97%10000m1012hPa86%
22-Apr-2024 15:00Light Rain29°C2 mph, N99%8224m1010hPa83%
22-Apr-2024 18:00Moderate Rain28°C2 mph, E99%7699m1008hPa89%
22-Apr-2024 21:00Moderate Rain25°C2 mph, SE100%10000m1008hPa96%